sensor_id;sensor_type;location;lat;lon;timestamp;P1;durP1;ratioP1;P2;durP2;ratioP2
30303;SDS011;17112;48.636;10.152;2022-10-16T00:01:03;3.55;;;2.08;;
30303;SDS011;17112;48.636;10.152;2022-10-16T00:03:40;3.25;;;2.20;;
30303;SDS011;17112;48.636;10.152;2022-10-16T00:06:07;4.28;;;1.88;;
30303;SDS011;17112;48.636;10.152;2022-10-16T00:08:34;4.70;;;2.05;;
30303;SDS011;17112;48.636;10.152;2022-10-16T00:11:03;3.88;;;1.95;;
30303;SDS011;17112;48.636;10.152;2022-10-16T00:13:38;8.23;;;2.38;;
30303;SDS011;17112;48.636;10.152;2022-10-16T00:16:06;6.45;;;1.70;;
30303;SDS011;17112;48.636;10.152;2022-10-16T00:18:35;4.35;;;1.42;;
30303;SDS011;17112;48.636;10.152;2022-10-16T00:21:21;3.95;;;1.30;;
30303;SDS011;17112;48.636;10.152;2022-10-16T00:23:56;6.20;;;1.42;;
30303;SDS011;17112;48.636;10.152;2022-10-16T00:26:24;2.25;;;1.60;;
30303;SDS011;17112;48.636;10.152;2022-10-16T00:28:50;4.20;;;1.50;;
30303;SDS011;17112;48.636;10.152;2022-10-16T00:31:17;3.20;;;1.65;;
30303;SDS011;17112;48.636;10.152;2022-10-16T00:33:44;6.47;;;1.50;;
30303;SDS011;17112;48.636;10.152;2022-10-16T00:36:11;1.70;;;1.30;;
30303;SDS011;17112;48.636;10.152;2022-10-16T00:38:39;1.85;;;1.25;;
30303;SDS011;17112;48.636;10.152;2022-10-16T00:41:06;5.18;;;1.98;;
30303;SDS011;17112;48.636;10.152;2022-10-16T00:43:45;3.38;;;1.30;;
30303;SDS011;17112;48.636;10.152;2022-10-16T00:46:17;2.20;;;1.23;;
30303;SDS011;17112;48.636;10.152;2022-10-16T00:51:51;5.50;;;1.27;;
30303;SDS011;17112;48.636;10.152;2022-10-16T00:54:26;1.58;;;1.10;;
30303;SDS011;17112;48.636;10.152;2022-10-16T00:56:55;8.30;;;1.60;;
30303;SDS011;17112;48.636;10.152;2022-10-16T00:59:25;4.97;;;1.30;;
30303;SDS011;17112;48.636;10.152;2022-10-16T01:01:56;4.90;;;1.17;;
30303;SDS011;17112;48.636;10.152;2022-10-16T01:04:23;4.70;;;1.13;;
30303;SDS011;17112;48.636;10.152;2022-10-16T01:12:46;1.58;;;1.30;;
30303;SDS011;17112;48.636;10.152;2022-10-16T01:18:39;2.75;;;1.30;;
30303;SDS011;17112;48.636;10.152;2022-10-16T01:21:19;2.83;;;1.40;;
30303;SDS011;17112;48.636;10.152;2022-10-16T01:23:57;2.03;;;1.23;;
30303;SDS011;17112;48.636;10.152;2022-10-16T01:26:43;5.72;;;1.40;;
30303;SDS011;17112;48.636;10.152;2022-10-16T01:29:35;2.80;;;1.25;;
30303;SDS011;17112;48.636;10.152;2022-10-16T01:32:08;8.98;;;1.70;;
30303;SDS011;17112;48.636;10.152;2022-10-16T01:35:26;4.10;;;1.42;;
30303;SDS011;17112;48.636;10.152;2022-10-16T01:40:05;4.47;;;1.27;;
30303;SDS011;17112;48.636;10.152;2022-10-16T01:42:46;2.47;;;1.10;;
30303;SDS011;17112;48.636;10.152;2022-10-16T01:45:17;7.35;;;1.17;;
30303;SDS011;17112;48.636;10.152;2022-10-16T01:47:44;4.93;;;1.30;;
30303;SDS011;17112;48.636;10.152;2022-10-16T01:50:11;3.60;;;1.35;;
30303;SDS011;17112;48.636;10.152;2022-10-16T01:52:40;3.92;;;1.27;;
30303;SDS011;17112;48.636;10.152;2022-10-16T01:55:10;7.53;;;1.10;;
30303;SDS011;17112;48.636;10.152;2022-10-16T01:57:39;8.52;;;1.52;;
30303;SDS011;17112;48.636;10.152;2022-10-16T02:00:10;5.53;;;1.38;;
30303;SDS011;17112;48.636;10.152;2022-10-16T02:02:38;10.48;;;1.58;;
30303;SDS011;17112;48.636;10.152;2022-10-16T02:07:43;3.78;;;1.90;;
30303;SDS011;17112;48.636;10.152;2022-10-16T02:10:09;7.22;;;2.08;;
30303;SDS011;17112;48.636;10.152;2022-10-16T02:12:36;4.60;;;1.77;;
30303;SDS011;17112;48.636;10.152;2022-10-16T02:15:06;3.00;;;1.98;;
30303;SDS011;17112;48.636;10.152;2022-10-16T02:17:32;5.15;;;1.67;;
30303;SDS011;17112;48.636;10.152;2022-10-16T02:19:58;2.58;;;1.60;;
30303;SDS011;17112;48.636;10.152;2022-10-16T02:25:02;2.85;;;1.30;;
30303;SDS011;17112;48.636;10.152;2022-10-16T02:27:51;7.55;;;1.23;;
30303;SDS011;17112;48.636;10.152;2022-10-16T02:30:21;3.80;;;1.23;;
30303;SDS011;17112;48.636;10.152;2022-10-16T02:33:13;1.77;;;1.30;;
30303;SDS011;17112;48.636;10.152;2022-10-16T02:35:41;6.15;;;1.02;;
30303;SDS011;17112;48.636;10.152;2022-10-16T02:38:10;7.30;;;1.00;;
30303;SDS011;17112;48.636;10.152;2022-10-16T02:40:36;4.82;;;1.00;;
30303;SDS011;17112;48.636;10.152;2022-10-16T02:43:03;3.10;;;1.02;;
30303;SDS011;17112;48.636;10.152;2022-10-16T02:45:29;10.60;;;1.50;;
30303;SDS011;17112;48.636;10.152;2022-10-16T02:47:57;4.10;;;1.23;;
30303;SDS011;17112;48.636;10.152;2022-10-16T02:50:22;5.80;;;1.70;;
30303;SDS011;17112;48.636;10.152;2022-10-16T02:52:50;6.63;;;1.95;;
30303;SDS011;17112;48.636;10.152;2022-10-16T02:55:15;4.07;;;1.48;;
30303;SDS011;17112;48.636;10.152;2022-10-16T02:57:41;2.72;;;1.90;;
30303;SDS011;17112;48.636;10.152;2022-10-16T03:00:08;2.47;;;1.83;;
30303;SDS011;17112;48.636;10.152;2022-10-16T03:02:36;8.52;;;1.60;;
30303;SDS011;17112;48.636;10.152;2022-10-16T03:05:02;3.22;;;1.40;;
30303;SDS011;17112;48.636;10.152;2022-10-16T03:07:27;2.10;;;1.50;;
30303;SDS011;17112;48.636;10.152;2022-10-16T03:09:53;2.95;;;2.00;;
30303;SDS011;17112;48.636;10.152;2022-10-16T03:12:20;3.08;;;1.80;;
30303;SDS011;17112;48.636;10.152;2022-10-16T03:14:46;7.40;;;1.55;;
30303;SDS011;17112;48.636;10.152;2022-10-16T03:17:12;4.20;;;1.70;;
30303;SDS011;17112;48.636;10.152;2022-10-16T03:19:38;2.47;;;1.60;;
30303;SDS011;17112;48.636;10.152;2022-10-16T03:22:04;4.47;;;1.77;;
30303;SDS011;17112;48.636;10.152;2022-10-16T03:24:29;4.18;;;1.75;;
30303;SDS011;17112;48.636;10.152;2022-10-16T03:26:55;5.30;;;1.77;;
30303;SDS011;17112;48.636;10.152;2022-10-16T03:29:21;2.35;;;1.80;;
30303;SDS011;17112;48.636;10.152;2022-10-16T03:31:46;9.60;;;1.67;;
30303;SDS011;17112;48.636;10.152;2022-10-16T03:34:14;3.72;;;1.50;;
30303;SDS011;17112;48.636;10.152;2022-10-16T03:36:40;2.25;;;1.65;;
30303;SDS011;17112;48.636;10.152;2022-10-16T03:39:06;2.40;;;1.40;;
30303;SDS011;17112;48.636;10.152;2022-10-16T03:41:32;5.50;;;1.65;;
30303;SDS011;17112;48.636;10.152;2022-10-16T03:43:58;2.08;;;1.45;;
30303;SDS011;17112;48.636;10.152;2022-10-16T03:46:23;5.50;;;1.65;;
30303;SDS011;17112;48.636;10.152;2022-10-16T03:48:49;4.63;;;1.80;;
30303;SDS011;17112;48.636;10.152;2022-10-16T03:51:15;4.88;;;1.80;;
30303;SDS011;17112;48.636;10.152;2022-10-16T03:53:40;8.35;;;1.88;;
30303;SDS011;17112;48.636;10.152;2022-10-16T03:56:06;10.05;;;1.52;;
30303;SDS011;17112;48.636;10.152;2022-10-16T03:58:32;3.97;;;1.70;;
30303;SDS011;17112;48.636;10.152;2022-10-16T04:00:57;6.22;;;1.58;;
30303;SDS011;17112;48.636;10.152;2022-10-16T04:03:23;5.72;;;1.75;;
30303;SDS011;17112;48.636;10.152;2022-10-16T04:05:49;7.13;;;1.45;;
30303;SDS011;17112;48.636;10.152;2022-10-16T04:08:15;4.55;;;1.60;;
30303;SDS011;17112;48.636;10.152;2022-10-16T04:10:44;3.00;;;1.83;;
30303;SDS011;17112;48.636;10.152;2022-10-16T04:13:10;5.85;;;1.50;;
30303;SDS011;17112;48.636;10.152;2022-10-16T04:15:37;6.47;;;1.67;;
30303;SDS011;17112;48.636;10.152;2022-10-16T04:18:03;1.88;;;1.67;;
30303;SDS011;17112;48.636;10.152;2022-10-16T04:20:29;1.75;;;1.58;;
30303;SDS011;17112;48.636;10.152;2022-10-16T04:22:55;10.40;;;2.00;;
30303;SDS011;17112;48.636;10.152;2022-10-16T04:25:21;2.08;;;1.60;;
30303;SDS011;17112;48.636;10.152;2022-10-16T04:27:47;5.78;;;2.03;;
30303;SDS011;17112;48.636;10.152;2022-10-16T04:30:13;5.18;;;1.80;;
30303;SDS011;17112;48.636;10.152;2022-10-16T04:32:39;9.82;;;2.22;;
30303;SDS011;17112;48.636;10.152;2022-10-16T04:35:05;4.18;;;1.92;;
30303;SDS011;17112;48.636;10.152;2022-10-16T04:37:31;4.85;;;1.95;;
30303;SDS011;17112;48.636;10.152;2022-10-16T04:39:57;5.00;;;2.00;;
30303;SDS011;17112;48.636;10.152;2022-10-16T04:42:23;4.18;;;2.33;;
30303;SDS011;17112;48.636;10.152;2022-10-16T04:44:48;4.93;;;2.00;;
30303;SDS011;17112;48.636;10.152;2022-10-16T04:47:14;3.10;;;1.90;;
30303;SDS011;17112;48.636;10.152;2022-10-16T04:49:40;7.13;;;2.05;;
30303;SDS011;17112;48.636;10.152;2022-10-16T04:52:05;5.45;;;2.00;;
30303;SDS011;17112;48.636;10.152;2022-10-16T04:54:31;5.85;;;2.00;;
30303;SDS011;17112;48.636;10.152;2022-10-16T04:56:57;7.22;;;2.20;;
30303;SDS011;17112;48.636;10.152;2022-10-16T04:59:23;4.05;;;1.67;;
30303;SDS011;17112;48.636;10.152;2022-10-16T05:01:49;4.28;;;2.20;;
30303;SDS011;17112;48.636;10.152;2022-10-16T05:04:14;21.67;;;2.30;;
30303;SDS011;17112;48.636;10.152;2022-10-16T05:06:41;4.53;;;1.83;;
30303;SDS011;17112;48.636;10.152;2022-10-16T05:09:07;3.47;;;1.77;;
30303;SDS011;17112;48.636;10.152;2022-10-16T05:11:33;8.75;;;2.17;;
30303;SDS011;17112;48.636;10.152;2022-10-16T05:14:00;4.53;;;2.17;;
30303;SDS011;17112;48.636;10.152;2022-10-16T05:16:25;6.20;;;2.25;;
30303;SDS011;17112;48.636;10.152;2022-10-16T05:18:52;3.00;;;2.30;;
30303;SDS011;17112;48.636;10.152;2022-10-16T05:21:18;3.22;;;2.42;;
30303;SDS011;17112;48.636;10.152;2022-10-16T05:23:44;6.00;;;2.15;;
30303;SDS011;17112;48.636;10.152;2022-10-16T05:26:10;7.45;;;2.03;;
30303;SDS011;17112;48.636;10.152;2022-10-16T05:28:35;4.03;;;2.30;;
30303;SDS011;17112;48.636;10.152;2022-10-16T05:31:08;4.82;;;2.03;;
30303;SDS011;17112;48.636;10.152;2022-10-16T05:33:34;3.25;;;1.92;;
30303;SDS011;17112;48.636;10.152;2022-10-16T05:36:03;3.53;;;2.20;;
30303;SDS011;17112;48.636;10.152;2022-10-16T05:38:31;6.30;;;2.10;;
30303;SDS011;17112;48.636;10.152;2022-10-16T05:40:56;2.97;;;1.98;;
30303;SDS011;17112;48.636;10.152;2022-10-16T05:43:23;6.38;;;1.80;;
30303;SDS011;17112;48.636;10.152;2022-10-16T05:45:55;4.38;;;1.60;;
30303;SDS011;17112;48.636;10.152;2022-10-16T05:48:22;11.38;;;1.80;;
30303;SDS011;17112;48.636;10.152;2022-10-16T05:50:48;7.43;;;2.17;;
30303;SDS011;17112;48.636;10.152;2022-10-16T05:53:20;3.28;;;1.65;;
30303;SDS011;17112;48.636;10.152;2022-10-16T05:55:53;3.08;;;1.73;;
30303;SDS011;17112;48.636;10.152;2022-10-16T05:58:20;5.50;;;1.80;;
30303;SDS011;17112;48.636;10.152;2022-10-16T06:00:53;5.38;;;1.98;;
30303;SDS011;17112;48.636;10.152;2022-10-16T06:03:20;2.28;;;1.90;;
30303;SDS011;17112;48.636;10.152;2022-10-16T06:05:45;3.42;;;1.90;;
30303;SDS011;17112;48.636;10.152;2022-10-16T06:08:11;2.38;;;2.00;;
30303;SDS011;17112;48.636;10.152;2022-10-16T06:10:37;2.45;;;1.90;;
30303;SDS011;17112;48.636;10.152;2022-10-16T06:13:02;4.45;;;2.22;;
30303;SDS011;17112;48.636;10.152;2022-10-16T06:15:28;2.28;;;1.98;;
30303;SDS011;17112;48.636;10.152;2022-10-16T06:17:54;4.28;;;2.00;;
30303;SDS011;17112;48.636;10.152;2022-10-16T06:20:20;7.40;;;2.22;;
30303;SDS011;17112;48.636;10.152;2022-10-16T06:22:45;4.40;;;2.03;;
30303;SDS011;17112;48.636;10.152;2022-10-16T06:25:11;3.08;;;2.00;;
30303;SDS011;17112;48.636;10.152;2022-10-16T06:27:39;6.88;;;2.40;;
30303;SDS011;17112;48.636;10.152;2022-10-16T06:30:05;5.70;;;2.20;;
30303;SDS011;17112;48.636;10.152;2022-10-16T06:32:32;7.22;;;2.15;;
30303;SDS011;17112;48.636;10.152;2022-10-16T06:34:57;2.08;;;1.33;;
30303;SDS011;17112;48.636;10.152;2022-10-16T06:37:23;2.97;;;1.65;;
30303;SDS011;17112;48.636;10.152;2022-10-16T06:39:50;5.25;;;1.60;;
30303;SDS011;17112;48.636;10.152;2022-10-16T06:42:17;6.28;;;1.83;;
30303;SDS011;17112;48.636;10.152;2022-10-16T06:44:43;2.30;;;1.67;;
30303;SDS011;17112;48.636;10.152;2022-10-16T06:47:09;5.00;;;1.67;;
30303;SDS011;17112;48.636;10.152;2022-10-16T06:49:35;5.80;;;2.20;;
30303;SDS011;17112;48.636;10.152;2022-10-16T06:52:00;3.05;;;2.00;;
30303;SDS011;17112;48.636;10.152;2022-10-16T06:54:27;2.20;;;1.80;;
30303;SDS011;17112;48.636;10.152;2022-10-16T06:56:53;2.40;;;2.00;;
30303;SDS011;17112;48.636;10.152;2022-10-16T06:59:19;4.25;;;2.30;;
30303;SDS011;17112;48.636;10.152;2022-10-16T07:01:46;5.32;;;2.00;;
30303;SDS011;17112;48.636;10.152;2022-10-16T07:04:12;5.00;;;2.15;;
30303;SDS011;17112;48.636;10.152;2022-10-16T07:06:37;3.55;;;2.20;;
30303;SDS011;17112;48.636;10.152;2022-10-16T07:09:04;5.53;;;2.65;;
30303;SDS011;17112;48.636;10.152;2022-10-16T07:11:32;8.02;;;2.88;;
30303;SDS011;17112;48.636;10.152;2022-10-16T07:13:58;7.43;;;2.83;;
30303;SDS011;17112;48.636;10.152;2022-10-16T07:16:25;6.63;;;3.03;;
30303;SDS011;17112;48.636;10.152;2022-10-16T07:18:53;7.28;;;3.10;;
30303;SDS011;17112;48.636;10.152;2022-10-16T07:21:24;4.82;;;3.42;;
30303;SDS011;17112;48.636;10.152;2022-10-16T07:23:54;4.43;;;3.10;;
30303;SDS011;17112;48.636;10.152;2022-10-16T07:26:21;4.53;;;2.85;;
30303;SDS011;17112;48.636;10.152;2022-10-16T07:28:48;8.43;;;2.60;;
30303;SDS011;17112;48.636;10.152;2022-10-16T07:31:15;2.97;;;1.98;;
30303;SDS011;17112;48.636;10.152;2022-10-16T07:33:42;5.35;;;1.98;;
30303;SDS011;17112;48.636;10.152;2022-10-16T07:36:10;7.82;;;2.03;;
30303;SDS011;17112;48.636;10.152;2022-10-16T07:38:43;3.10;;;1.90;;
30303;SDS011;17112;48.636;10.152;2022-10-16T07:41:11;1.70;;;1.55;;
30303;SDS011;17112;48.636;10.152;2022-10-16T07:43:38;2.08;;;1.48;;
30303;SDS011;17112;48.636;10.152;2022-10-16T07:46:04;3.88;;;1.73;;
30303;SDS011;17112;48.636;10.152;2022-10-16T07:48:31;5.80;;;2.25;;
30303;SDS011;17112;48.636;10.152;2022-10-16T07:50:59;2.67;;;2.00;;
30303;SDS011;17112;48.636;10.152;2022-10-16T07:53:26;5.45;;;2.30;;
30303;SDS011;17112;48.636;10.152;2022-10-16T07:55:52;5.07;;;2.25;;
30303;SDS011;17112;48.636;10.152;2022-10-16T07:58:22;3.78;;;2.25;;
30303;SDS011;17112;48.636;10.152;2022-10-16T08:00:48;5.22;;;2.75;;
30303;SDS011;17112;48.636;10.152;2022-10-16T08:03:14;3.90;;;2.50;;
30303;SDS011;17112;48.636;10.152;2022-10-16T08:05:39;8.48;;;2.22;;
30303;SDS011;17112;48.636;10.152;2022-10-16T08:08:05;4.00;;;2.38;;
30303;SDS011;17112;48.636;10.152;2022-10-16T08:10:31;7.78;;;2.47;;
30303;SDS011;17112;48.636;10.152;2022-10-16T08:12:56;4.70;;;2.60;;
30303;SDS011;17112;48.636;10.152;2022-10-16T08:15:23;11.25;;;2.90;;
30303;SDS011;17112;48.636;10.152;2022-10-16T08:17:58;4.35;;;2.90;;
30303;SDS011;17112;48.636;10.152;2022-10-16T08:20:26;5.75;;;2.50;;
30303;SDS011;17112;48.636;10.152;2022-10-16T08:22:52;6.53;;;2.20;;
30303;SDS011;17112;48.636;10.152;2022-10-16T08:25:19;3.80;;;2.08;;
30303;SDS011;17112;48.636;10.152;2022-10-16T08:27:46;5.25;;;2.20;;
30303;SDS011;17112;48.636;10.152;2022-10-16T08:30:12;5.22;;;2.30;;
30303;SDS011;17112;48.636;10.152;2022-10-16T08:32:38;6.13;;;2.38;;
30303;SDS011;17112;48.636;10.152;2022-10-16T08:35:04;2.42;;;2.22;;
30303;SDS011;17112;48.636;10.152;2022-10-16T08:37:31;6.22;;;2.20;;
30303;SDS011;17112;48.636;10.152;2022-10-16T08:39:57;4.00;;;2.20;;
30303;SDS011;17112;48.636;10.152;2022-10-16T08:46:02;8.32;;;2.38;;
30303;SDS011;17112;48.636;10.152;2022-10-16T08:48:05;4.68;;;2.10;;
30303;SDS011;17112;48.636;10.152;2022-10-16T08:50:40;3.20;;;2.00;;
30303;SDS011;17112;48.636;10.152;2022-10-16T08:53:06;3.20;;;1.67;;
30303;SDS011;17112;48.636;10.152;2022-10-16T08:55:43;4.85;;;2.58;;
30303;SDS011;17112;48.636;10.152;2022-10-16T08:58:15;7.18;;;4.32;;
30303;SDS011;17112;48.636;10.152;2022-10-16T09:00:46;12.82;;;9.35;;
30303;SDS011;17112;48.636;10.152;2022-10-16T09:06:37;12.82;;;2.83;;
30303;SDS011;17112;48.636;10.152;2022-10-16T09:22:15;4.15;;;1.85;;
30303;SDS011;17112;48.636;10.152;2022-10-16T09:24:41;3.45;;;1.80;;
30303;SDS011;17112;48.636;10.152;2022-10-16T09:27:16;3.70;;;2.13;;
30303;SDS011;17112;48.636;10.152;2022-10-16T09:29:42;8.07;;;5.00;;
30303;SDS011;17112;48.636;10.152;2022-10-16T09:32:12;6.43;;;3.22;;
30303;SDS011;17112;48.636;10.152;2022-10-16T09:34:43;8.68;;;2.42;;
30303;SDS011;17112;48.636;10.152;2022-10-16T09:37:13;3.55;;;2.13;;
30303;SDS011;17112;48.636;10.152;2022-10-16T09:39:46;4.75;;;2.28;;
30303;SDS011;17112;48.636;10.152;2022-10-16T09:42:19;4.65;;;2.03;;
30303;SDS011;17112;48.636;10.152;2022-10-16T09:45:01;5.53;;;2.15;;
30303;SDS011;17112;48.636;10.152;2022-10-16T09:47:28;5.40;;;2.20;;
30303;SDS011;17112;48.636;10.152;2022-10-16T09:50:01;4.03;;;2.10;;
30303;SDS011;17112;48.636;10.152;2022-10-16T09:52:44;4.88;;;1.73;;
30303;SDS011;17112;48.636;10.152;2022-10-16T09:55:14;3.65;;;1.95;;
30303;SDS011;17112;48.636;10.152;2022-10-16T09:57:52;5.70;;;1.90;;
30303;SDS011;17112;48.636;10.152;2022-10-16T10:00:19;4.82;;;2.72;;
30303;SDS011;17112;48.636;10.152;2022-10-16T10:02:46;5.80;;;1.90;;
30303;SDS011;17112;48.636;10.152;2022-10-16T10:05:30;6.70;;;3.50;;
30303;SDS011;17112;48.636;10.152;2022-10-16T10:12:53;3.22;;;1.85;;
30303;SDS011;17112;48.636;10.152;2022-10-16T10:15:20;4.63;;;1.98;;
30303;SDS011;17112;48.636;10.152;2022-10-16T10:17:52;3.72;;;1.80;;
30303;SDS011;17112;48.636;10.152;2022-10-16T10:20:27;1.70;;;1.23;;
30303;SDS011;17112;48.636;10.152;2022-10-16T10:23:00;4.85;;;1.60;;
30303;SDS011;17112;48.636;10.152;2022-10-16T10:25:52;2.70;;;1.42;;
30303;SDS011;17112;48.636;10.152;2022-10-16T10:31:34;2.75;;;1.23;;
30303;SDS011;17112;48.636;10.152;2022-10-16T10:36:35;1.83;;;1.38;;
30303;SDS011;17112;48.636;10.152;2022-10-16T10:44:37;7.15;;;1.48;;
30303;SDS011;17112;48.636;10.152;2022-10-16T10:52:34;9.27;;;4.97;;
30303;SDS011;17112;48.636;10.152;2022-10-16T11:01:01;8.57;;;1.75;;
30303;SDS011;17112;48.636;10.152;2022-10-16T11:06:42;2.38;;;1.00;;
30303;SDS011;17112;48.636;10.152;2022-10-16T11:09:16;2.40;;;2.00;;
30303;SDS011;17112;48.636;10.152;2022-10-16T11:12:05;4.32;;;2.40;;
30303;SDS011;17112;48.636;10.152;2022-10-16T11:14:49;2.67;;;1.95;;
30303;SDS011;17112;48.636;10.152;2022-10-16T11:17:39;1.85;;;1.17;;
30303;SDS011;17112;48.636;10.152;2022-10-16T11:22:41;4.63;;;1.10;;
30303;SDS011;17112;48.636;10.152;2022-10-16T11:25:21;2.75;;;1.05;;
30303;SDS011;17112;48.636;10.152;2022-10-16T11:30:33;3.30;;;1.08;;
30303;SDS011;17112;48.636;10.152;2022-10-16T11:36:12;7.57;;;1.08;;
30303;SDS011;17112;48.636;10.152;2022-10-16T11:38:51;2.03;;;1.42;;
30303;SDS011;17112;48.636;10.152;2022-10-16T11:49:27;2.03;;;1.08;;
30303;SDS011;17112;48.636;10.152;2022-10-16T11:55:13;3.10;;;1.25;;
30303;SDS011;17112;48.636;10.152;2022-10-16T11:57:46;1.73;;;0.80;;
30303;SDS011;17112;48.636;10.152;2022-10-16T12:03:03;1.65;;;0.90;;
30303;SDS011;17112;48.636;10.152;2022-10-16T12:16:56;10.70;;;1.17;;
30303;SDS011;17112;48.636;10.152;2022-10-16T12:19:28;1.65;;;0.88;;
30303;SDS011;17112;48.636;10.152;2022-10-16T12:21:56;1.50;;;0.90;;
30303;SDS011;17112;48.636;10.152;2022-10-16T12:24:36;1.48;;;0.75;;
30303;SDS011;17112;48.636;10.152;2022-10-16T12:27:27;2.57;;;1.00;;
30303;SDS011;17112;48.636;10.152;2022-10-16T12:29:58;1.17;;;0.93;;
30303;SDS011;17112;48.636;10.152;2022-10-16T12:32:30;4.45;;;1.42;;
30303;SDS011;17112;48.636;10.152;2022-10-16T12:35:05;1.50;;;0.70;;
30303;SDS011;17112;48.636;10.152;2022-10-16T12:37:47;1.38;;;0.70;;
30303;SDS011;17112;48.636;10.152;2022-10-16T12:42:52;4.47;;;1.00;;
30303;SDS011;17112;48.636;10.152;2022-10-16T12:45:26;4.47;;;0.90;;
30303;SDS011;17112;48.636;10.152;2022-10-16T12:47:56;4.78;;;0.90;;
30303;SDS011;17112;48.636;10.152;2022-10-16T12:53:01;1.10;;;1.00;;
30303;SDS011;17112;48.636;10.152;2022-10-16T12:55:34;0.80;;;0.73;;
30303;SDS011;17112;48.636;10.152;2022-10-16T12:58:37;4.93;;;0.75;;
30303;SDS011;17112;48.636;10.152;2022-10-16T13:01:11;3.92;;;1.23;;
30303;SDS011;17112;48.636;10.152;2022-10-16T13:14:56;4.45;;;0.82;;
30303;SDS011;17112;48.636;10.152;2022-10-16T13:28:41;1.20;;;0.65;;
30303;SDS011;17112;48.636;10.152;2022-10-16T13:31:15;1.80;;;0.88;;
30303;SDS011;17112;48.636;10.152;2022-10-16T13:33:48;2.47;;;0.80;;
30303;SDS011;17112;48.636;10.152;2022-10-16T13:36:26;5.70;;;0.95;;
30303;SDS011;17112;48.636;10.152;2022-10-16T13:39:00;3.60;;;0.77;;
30303;SDS011;17112;48.636;10.152;2022-10-16T13:41:36;2.65;;;0.65;;
30303;SDS011;17112;48.636;10.152;2022-10-16T13:44:02;2.65;;;0.80;;
30303;SDS011;17112;48.636;10.152;2022-10-16T13:46:29;1.60;;;0.80;;
30303;SDS011;17112;48.636;10.152;2022-10-16T13:49:32;3.05;;;0.73;;
30303;SDS011;17112;48.636;10.152;2022-10-16T13:51:55;2.38;;;0.75;;
30303;SDS011;17112;48.636;10.152;2022-10-16T13:54:22;1.30;;;0.63;;
30303;SDS011;17112;48.636;10.152;2022-10-16T13:56:49;3.05;;;0.82;;
30303;SDS011;17112;48.636;10.152;2022-10-16T13:59:24;2.38;;;0.75;;
30303;SDS011;17112;48.636;10.152;2022-10-16T14:02:00;1.77;;;0.73;;
30303;SDS011;17112;48.636;10.152;2022-10-16T14:04:39;2.25;;;1.00;;
30303;SDS011;17112;48.636;10.152;2022-10-16T14:07:11;1.65;;;0.73;;
30303;SDS011;17112;48.636;10.152;2022-10-16T14:09:47;5.22;;;0.90;;
30303;SDS011;17112;48.636;10.152;2022-10-16T14:12:14;3.47;;;0.82;;
30303;SDS011;17112;48.636;10.152;2022-10-16T14:14:41;3.55;;;0.82;;
30303;SDS011;17112;48.636;10.152;2022-10-16T14:19:45;4.22;;;1.50;;
30303;SDS011;17112;48.636;10.152;2022-10-16T14:22:23;4.15;;;0.93;;
30303;SDS011;17112;48.636;10.152;2022-10-16T14:24:58;2.33;;;0.80;;
30303;SDS011;17112;48.636;10.152;2022-10-16T14:32:41;3.65;;;0.80;;
30303;SDS011;17112;48.636;10.152;2022-10-16T14:35:29;2.65;;;0.80;;
30303;SDS011;17112;48.636;10.152;2022-10-16T14:37:57;2.50;;;0.80;;
30303;SDS011;17112;48.636;10.152;2022-10-16T14:40:29;0.75;;;0.75;;
30303;SDS011;17112;48.636;10.152;2022-10-16T14:42:57;9.43;;;0.85;;
30303;SDS011;17112;48.636;10.152;2022-10-16T14:45:24;0.70;;;0.70;;
30303;SDS011;17112;48.636;10.152;2022-10-16T14:47:53;1.85;;;0.70;;
30303;SDS011;17112;48.636;10.152;2022-10-16T14:50:24;2.55;;;1.05;;
30303;SDS011;17112;48.636;10.152;2022-10-16T14:52:49;0.63;;;0.60;;
30303;SDS011;17112;48.636;10.152;2022-10-16T14:55:16;1.50;;;0.60;;
30303;SDS011;17112;48.636;10.152;2022-10-16T14:57:42;0.55;;;0.55;;
30303;SDS011;17112;48.636;10.152;2022-10-16T15:00:10;3.45;;;0.80;;
30303;SDS011;17112;48.636;10.152;2022-10-16T15:02:46;0.70;;;0.70;;
30303;SDS011;17112;48.636;10.152;2022-10-16T15:07:48;1.90;;;0.80;;
30303;SDS011;17112;48.636;10.152;2022-10-16T15:10:15;5.55;;;1.23;;
30303;SDS011;17112;48.636;10.152;2022-10-16T15:12:45;1.70;;;1.00;;
30303;SDS011;17112;48.636;10.152;2022-10-16T15:17:50;1.17;;;0.95;;
30303;SDS011;17112;48.636;10.152;2022-10-16T15:20:21;1.88;;;0.90;;
30303;SDS011;17112;48.636;10.152;2022-10-16T15:22:51;0.88;;;0.63;;
30303;SDS011;17112;48.636;10.152;2022-10-16T15:27:58;10.68;;;1.63;;
30303;SDS011;17112;48.636;10.152;2022-10-16T15:30:25;6.03;;;1.40;;
30303;SDS011;17112;48.636;10.152;2022-10-16T15:32:51;2.50;;;1.10;;
30303;SDS011;17112;48.636;10.152;2022-10-16T15:35:17;6.82;;;0.90;;
30303;SDS011;17112;48.636;10.152;2022-10-16T15:37:44;5.57;;;1.13;;
30303;SDS011;17112;48.636;10.152;2022-10-16T15:40:11;3.92;;;1.00;;
30303;SDS011;17112;48.636;10.152;2022-10-16T15:42:37;3.83;;;1.13;;
30303;SDS011;17112;48.636;10.152;2022-10-16T15:45:03;8.85;;;1.30;;
30303;SDS011;17112;48.636;10.152;2022-10-16T15:47:29;4.15;;;1.08;;
30303;SDS011;17112;48.636;10.152;2022-10-16T15:49:55;1.70;;;1.00;;
30303;SDS011;17112;48.636;10.152;2022-10-16T15:52:20;6.93;;;1.38;;
30303;SDS011;17112;48.636;10.152;2022-10-16T15:54:46;2.28;;;0.90;;
30303;SDS011;17112;48.636;10.152;2022-10-16T15:57:11;4.53;;;1.10;;
30303;SDS011;17112;48.636;10.152;2022-10-16T15:59:37;3.42;;;1.67;;
30303;SDS011;17112;48.636;10.152;2022-10-16T16:02:03;7.78;;;1.20;;
30303;SDS011;17112;48.636;10.152;2022-10-16T16:04:31;5.68;;;1.02;;
30303;SDS011;17112;48.636;10.152;2022-10-16T16:06:57;2.60;;;1.55;;
30303;SDS011;17112;48.636;10.152;2022-10-16T16:09:23;8.25;;;1.20;;
30303;SDS011;17112;48.636;10.152;2022-10-16T16:11:48;7.60;;;1.40;;
30303;SDS011;17112;48.636;10.152;2022-10-16T16:14:16;7.15;;;1.52;;
30303;SDS011;17112;48.636;10.152;2022-10-16T16:16:41;4.15;;;1.77;;
30303;SDS011;17112;48.636;10.152;2022-10-16T16:19:07;6.82;;;1.80;;
30303;SDS011;17112;48.636;10.152;2022-10-16T16:21:34;5.32;;;1.77;;
30303;SDS011;17112;48.636;10.152;2022-10-16T16:24:00;11.45;;;3.17;;
30303;SDS011;17112;48.636;10.152;2022-10-16T16:26:33;11.65;;;2.90;;
30303;SDS011;17112;48.636;10.152;2022-10-16T16:29:01;16.75;;;5.88;;
30303;SDS011;17112;48.636;10.152;2022-10-16T16:31:29;14.73;;;6.25;;
30303;SDS011;17112;48.636;10.152;2022-10-16T16:33:56;9.77;;;2.45;;
30303;SDS011;17112;48.636;10.152;2022-10-16T16:36:22;7.43;;;1.92;;
30303;SDS011;17112;48.636;10.152;2022-10-16T16:38:49;12.65;;;2.03;;
30303;SDS011;17112;48.636;10.152;2022-10-16T16:41:16;5.45;;;1.80;;
30303;SDS011;17112;48.636;10.152;2022-10-16T16:43:43;4.57;;;1.75;;
30303;SDS011;17112;48.636;10.152;2022-10-16T16:46:09;5.95;;;1.75;;
30303;SDS011;17112;48.636;10.152;2022-10-16T16:48:36;6.05;;;2.00;;
30303;SDS011;17112;48.636;10.152;2022-10-16T16:51:05;14.20;;;4.65;;
30303;SDS011;17112;48.636;10.152;2022-10-16T16:53:35;14.35;;;4.25;;
30303;SDS011;17112;48.636;10.152;2022-10-16T16:56:02;14.30;;;4.80;;
30303;SDS011;17112;48.636;10.152;2022-10-16T16:58:29;8.45;;;2.65;;
30303;SDS011;17112;48.636;10.152;2022-10-16T17:00:55;8.50;;;1.90;;
30303;SDS011;17112;48.636;10.152;2022-10-16T17:03:21;14.10;;;2.78;;
30303;SDS011;17112;48.636;10.152;2022-10-16T17:08:43;5.70;;;2.03;;
30303;SDS011;17112;48.636;10.152;2022-10-16T17:11:12;9.18;;;2.20;;
30303;SDS011;17112;48.636;10.152;2022-10-16T17:13:43;5.35;;;1.92;;
30303;SDS011;17112;48.636;10.152;2022-10-16T17:16:09;4.32;;;1.88;;